sensor_id;sensor_type;location;lat;lon;timestamp;pressure;altitude;pressure_sealevel;temperature;humidity
21153;BME280;10734;44.792;20.482;2022-10-16T00:00:37;100399.25;;;13.24;87.74
21153;BME280;10734;44.792;20.482;2022-10-16T00:03:05;100395.88;;;13.22;88.17
21153;BME280;10734;44.792;20.482;2022-10-16T00:05:32;100393.16;;;13.22;87.67
21153;BME280;10734;44.792;20.482;2022-10-16T00:07:59;100393.31;;;13.20;88.00
21153;BME280;10734;44.792;20.482;2022-10-16T00:10:26;100400.56;;;13.20;88.43
21153;BME280;10734;44.792;20.482;2022-10-16T00:12:53;100396.19;;;13.19;88.13
21153;BME280;10734;44.792;20.482;2022-10-16T00:15:19;100399.88;;;13.18;88.39
21153;BME280;10734;44.792;20.482;2022-10-16T00:17:46;100401.59;;;13.19;88.50
21153;BME280;10734;44.792;20.482;2022-10-16T00:20:13;100395.81;;;13.13;88.69
21153;BME280;10734;44.792;20.482;2022-10-16T00:22:39;100389.72;;;13.11;89.24
21153;BME280;10734;44.792;20.482;2022-10-16T00:25:06;100393.44;;;13.10;89.35
21153;BME280;10734;44.792;20.482;2022-10-16T00:27:33;100391.72;;;13.09;89.44
21153;BME280;10734;44.792;20.482;2022-10-16T00:30:00;100400.84;;;13.08;89.47
21153;BME280;10734;44.792;20.482;2022-10-16T00:32:27;100400.84;;;13.08;89.36
21153;BME280;10734;44.792;20.482;2022-10-16T00:34:54;100402.22;;;13.12;89.38
21153;BME280;10734;44.792;20.482;2022-10-16T00:37:21;100398.53;;;13.13;89.39
21153;BME280;10734;44.792;20.482;2022-10-16T00:39:47;100402.91;;;13.15;89.45
21153;BME280;10734;44.792;20.482;2022-10-16T00:42:18;100402.91;;;13.15;89.61
21153;BME280;10734;44.792;20.482;2022-10-16T00:44:50;100399.03;;;13.17;89.45
21153;BME280;10734;44.792;20.482;2022-10-16T00:47:22;100400.19;;;13.15;89.55
21153;BME280;10734;44.792;20.482;2022-10-16T00:49:54;100392.25;;;13.13;89.62
21153;BME280;10734;44.792;20.482;2022-10-16T00:52:22;100393.44;;;13.10;90.15
21153;BME280;10734;44.792;20.482;2022-10-16T00:54:49;100400.50;;;13.11;90.10
21153;BME280;10734;44.792;20.482;2022-10-16T00:57:17;100399.84;;;13.09;90.45
21153;BME280;10734;44.792;20.482;2022-10-16T00:59:43;100395.75;;;13.05;90.49
21153;BME280;10734;44.792;20.482;2022-10-16T01:02:14;100399.47;;;13.04;90.64
21153;BME280;10734;44.792;20.482;2022-10-16T01:04:50;100406.19;;;13.00;91.66
21153;BME280;10734;44.792;20.482;2022-10-16T01:15:26;100404.75;;;12.88;92.54
21153;BME280;10734;44.792;20.482;2022-10-16T01:18:02;100409.63;;;12.84;93.38
21153;BME280;10734;44.792;20.482;2022-10-16T01:20:35;100409.94;;;12.81;93.68
21153;BME280;10734;44.792;20.482;2022-10-16T01:29:15;100413.41;;;12.73;94.32
21153;BME280;10734;44.792;20.482;2022-10-16T01:31:48;100404.59;;;12.71;94.78
21153;BME280;10734;44.792;20.482;2022-10-16T01:34:21;100415.41;;;12.71;94.86
21153;BME280;10734;44.792;20.482;2022-10-16T01:36:53;100418.81;;;12.73;94.84
21153;BME280;10734;44.792;20.482;2022-10-16T01:39:25;100405.47;;;12.72;95.12
21153;BME280;10734;44.792;20.482;2022-10-16T01:41:55;100410.00;;;12.71;95.15
21153;BME280;10734;44.792;20.482;2022-10-16T01:44:29;100416.13;;;12.73;94.26
21153;BME280;10734;44.792;20.482;2022-10-16T01:46:57;100407.16;;;12.73;94.78
21153;BME280;10734;44.792;20.482;2022-10-16T01:49:29;100413.41;;;12.73;94.80
21153;BME280;10734;44.792;20.482;2022-10-16T01:51:58;100412.53;;;12.73;94.76
21153;BME280;10734;44.792;20.482;2022-10-16T01:54:31;100416.50;;;12.79;94.47
21153;BME280;10734;44.792;20.482;2022-10-16T01:56:59;100420.50;;;12.74;94.67
21153;BME280;10734;44.792;20.482;2022-10-16T01:59:30;100427.59;;;12.75;94.50
21153;BME280;10734;44.792;20.482;2022-10-16T02:02:05;100426.22;;;12.71;94.88
21153;BME280;10734;44.792;20.482;2022-10-16T02:04:37;100429.94;;;12.70;94.88
21153;BME280;10734;44.792;20.482;2022-10-16T02:07:04;100431.22;;;12.66;95.48
21153;BME280;10734;44.792;20.482;2022-10-16T02:09:33;100421.75;;;12.62;96.01
21153;BME280;10734;44.792;20.482;2022-10-16T02:12:06;100434.84;;;12.57;96.35
21153;BME280;10734;44.792;20.482;2022-10-16T02:14:37;100433.78;;;12.50;96.82
21153;BME280;10734;44.792;20.482;2022-10-16T02:17:12;100433.94;;;12.48;97.04
21153;BME280;10734;44.792;20.482;2022-10-16T02:19:41;100437.66;;;12.47;97.33
21153;BME280;10734;44.792;20.482;2022-10-16T02:22:10;100430.38;;;12.48;97.68
21153;BME280;10734;44.792;20.482;2022-10-16T02:30:16;100432.47;;;12.36;98.18
21153;BME280;10734;44.792;20.482;2022-10-16T02:32:48;100436.69;;;12.38;98.56
21153;BME280;10734;44.792;20.482;2022-10-16T02:35:17;100444.41;;;12.33;98.56
21153;BME280;10734;44.792;20.482;2022-10-16T02:37:46;100451.81;;;12.31;99.27
21153;BME280;10734;44.792;20.482;2022-10-16T02:40:13;100446.00;;;12.26;99.71
21153;BME280;10734;44.792;20.482;2022-10-16T02:42:40;100453.81;;;12.29;99.31
21153;BME280;10734;44.792;20.482;2022-10-16T02:45:09;100445.03;;;12.27;99.56
21153;BME280;10734;44.792;20.482;2022-10-16T02:47:36;100452.44;;;12.25;99.39
21153;BME280;10734;44.792;20.482;2022-10-16T02:50:04;100451.25;;;12.28;98.93
21153;BME280;10734;44.792;20.482;2022-10-16T02:52:30;100436.25;;;12.25;99.18
21153;BME280;10734;44.792;20.482;2022-10-16T02:54:57;100438.22;;;12.23;99.27
21153;BME280;10734;44.792;20.482;2022-10-16T02:57:23;100432.81;;;12.23;99.48
21153;BME280;10734;44.792;20.482;2022-10-16T02:59:51;100431.28;;;12.20;99.66
21153;BME280;10734;44.792;20.482;2022-10-16T03:02:17;100443.09;;;12.19;99.72
21153;BME280;10734;44.792;20.482;2022-10-16T03:04:44;100445.63;;;12.21;99.43
21153;BME280;10734;44.792;20.482;2022-10-16T03:07:11;100446.63;;;12.20;99.83
21153;BME280;10734;44.792;20.482;2022-10-16T03:09:37;100442.25;;;12.19;99.54
21153;BME280;10734;44.792;20.482;2022-10-16T03:12:04;100450.50;;;12.17;99.65
21153;BME280;10734;44.792;20.482;2022-10-16T03:14:31;100453.34;;;12.16;99.90
21153;BME280;10734;44.792;20.482;2022-10-16T03:16:57;100453.34;;;12.16;99.13
21153;BME280;10734;44.792;20.482;2022-10-16T03:19:24;100457.88;;;12.15;99.51
21153;BME280;10734;44.792;20.482;2022-10-16T03:21:51;100455.66;;;12.11;99.58
21153;BME280;10734;44.792;20.482;2022-10-16T03:24:17;100459.34;;;12.10;100.00
21153;BME280;10734;44.792;20.482;2022-10-16T03:26:44;100474.41;;;12.02;100.00
21153;BME280;10734;44.792;20.482;2022-10-16T03:29:11;100472.75;;;12.01;100.00
21153;BME280;10734;44.792;20.482;2022-10-16T03:31:37;100475.59;;;12.00;100.00
21153;BME280;10734;44.792;20.482;2022-10-16T03:34:04;100474.72;;;11.99;99.91
21153;BME280;10734;44.792;20.482;2022-10-16T03:36:30;100478.13;;;12.01;100.00
21153;BME280;10734;44.792;20.482;2022-10-16T03:38:57;100478.44;;;11.98;100.00
21153;BME280;10734;44.792;20.482;2022-10-16T03:41:24;100482.13;;;11.97;100.00
21153;BME280;10734;44.792;20.482;2022-10-16T03:43:50;100478.72;;;11.95;100.00
21153;BME280;10734;44.792;20.482;2022-10-16T03:46:17;100484.41;;;11.92;100.00
21153;BME280;10734;44.792;20.482;2022-10-16T03:48:44;100484.69;;;11.89;100.00
21153;BME280;10734;44.792;20.482;2022-10-16T03:51:10;100487.97;;;11.83;100.00
21153;BME280;10734;44.792;20.482;2022-10-16T03:53:37;100486.56;;;11.79;100.00
21153;BME280;10734;44.792;20.482;2022-10-16T03:56:04;100485.00;;;11.76;100.00
21153;BME280;10734;44.792;20.482;2022-10-16T03:58:30;100494.09;;;11.75;100.00
21153;BME280;10734;44.792;20.482;2022-10-16T04:00:57;100492.53;;;11.73;100.00
21153;BME280;10734;44.792;20.482;2022-10-16T04:03:24;100490.16;;;11.69;100.00
21153;BME280;10734;44.792;20.482;2022-10-16T04:05:50;100499.50;;;11.65;100.00
21153;BME280;10734;44.792;20.482;2022-10-16T04:08:17;100512.31;;;11.63;100.00
21153;BME280;10734;44.792;20.482;2022-10-16T04:10:45;100500.41;;;11.56;100.00
21153;BME280;10734;44.792;20.482;2022-10-16T04:13:12;100504.38;;;11.52;100.00
21153;BME280;10734;44.792;20.482;2022-10-16T04:15:38;100501.00;;;11.50;100.00
21153;BME280;10734;44.792;20.482;2022-10-16T04:18:05;100499.28;;;11.49;100.00
21153;BME280;10734;44.792;20.482;2022-10-16T04:20:33;100497.88;;;11.45;100.00
21153;BME280;10734;44.792;20.482;2022-10-16T04:23:00;100496.78;;;11.38;100.00
21153;BME280;10734;44.792;20.482;2022-10-16T04:25:26;100492.50;;;11.35;100.00
21153;BME280;10734;44.792;20.482;2022-10-16T04:27:53;100505.84;;;11.37;100.00
21153;BME280;10734;44.792;20.482;2022-10-16T04:30:22;100513.22;;;11.35;100.00
21153;BME280;10734;44.792;20.482;2022-10-16T04:32:50;100507.97;;;11.33;100.00
21153;BME280;10734;44.792;20.482;2022-10-16T04:35:18;100511.81;;;11.30;100.00
21153;BME280;10734;44.792;20.482;2022-10-16T04:37:46;100511.81;;;11.30;100.00
21153;BME280;10734;44.792;20.482;2022-10-16T04:40:13;100515.19;;;11.32;100.00
21153;BME280;10734;44.792;20.482;2022-10-16T04:42:40;100502.75;;;11.31;100.00
21153;BME280;10734;44.792;20.482;2022-10-16T04:45:07;100495.94;;;11.27;100.00
21153;BME280;10734;44.792;20.482;2022-10-16T04:47:40;100495.22;;;11.25;100.00
21153;BME280;10734;44.792;20.482;2022-10-16T04:50:07;100493.22;;;11.27;100.00
21153;BME280;10734;44.792;20.482;2022-10-16T04:52:34;100495.94;;;11.27;100.00
21153;BME280;10734;44.792;20.482;2022-10-16T04:55:05;100497.63;;;11.28;100.00
21153;BME280;10734;44.792;20.482;2022-10-16T04:57:32;100499.59;;;11.26;100.00
21153;BME280;10734;44.792;20.482;2022-10-16T04:59:59;100509.41;;;11.27;100.00
21153;BME280;10734;44.792;20.482;2022-10-16T05:02:26;100497.63;;;11.28;100.00
21153;BME280;10734;44.792;20.482;2022-10-16T05:04:53;100510.09;;;11.29;100.00
21153;BME280;10734;44.792;20.482;2022-10-16T05:07:20;100518.91;;;11.31;100.00
21153;BME280;10734;44.792;20.482;2022-10-16T05:09:46;100524.28;;;11.31;100.00
21153;BME280;10734;44.792;20.482;2022-10-16T05:12:13;100525.69;;;11.36;100.00
21153;BME280;10734;44.792;20.482;2022-10-16T05:14:40;100536.47;;;11.36;100.00
21153;BME280;10734;44.792;20.482;2022-10-16T05:17:07;100541.84;;;11.36;100.00
21153;BME280;10734;44.792;20.482;2022-10-16T05:19:33;100546.25;;;11.37;100.00
21153;BME280;10734;44.792;20.482;2022-10-16T05:22:00;100538.19;;;11.37;100.00
21153;BME280;10734;44.792;20.482;2022-10-16T05:24:27;100551.38;;;11.40;100.00
21153;BME280;10734;44.792;20.482;2022-10-16T05:26:53;100552.06;;;11.42;100.00
21153;BME280;10734;44.792;20.482;2022-10-16T05:29:20;100557.91;;;11.47;100.00
21153;BME280;10734;44.792;20.482;2022-10-16T05:31:50;100546.09;;;11.48;100.00
21153;BME280;10734;44.792;20.482;2022-10-16T05:34:18;100547.53;;;11.52;100.00
21153;BME280;10734;44.792;20.482;2022-10-16T05:36:46;100543.56;;;11.56;100.00
21153;BME280;10734;44.792;20.482;2022-10-16T05:39:14;100562.41;;;11.66;100.00
21153;BME280;10734;44.792;20.482;2022-10-16T05:41:41;100557.97;;;11.75;100.00
21153;BME280;10734;44.792;20.482;2022-10-16T05:44:08;100566.19;;;11.83;100.00
21153;BME280;10734;44.792;20.482;2022-10-16T05:46:34;100569.00;;;11.91;100.00
21153;BME280;10734;44.792;20.482;2022-10-16T05:49:01;100575.25;;;12.01;100.00
21153;BME280;10734;44.792;20.482;2022-10-16T05:51:28;100570.94;;;12.09;100.00
21153;BME280;10734;44.792;20.482;2022-10-16T05:53:55;100575.16;;;12.21;99.70
21153;BME280;10734;44.792;20.482;2022-10-16T05:56:21;100581.97;;;12.25;99.81
21153;BME280;10734;44.792;20.482;2022-10-16T05:58:48;100576.53;;;12.35;99.04
21153;BME280;10734;44.792;20.482;2022-10-16T06:01:18;100580.88;;;12.46;98.36
21153;BME280;10734;44.792;20.482;2022-10-16T06:03:47;100593.50;;;12.55;98.03
21153;BME280;10734;44.792;20.482;2022-10-16T06:06:18;100590.88;;;12.63;97.46
21153;BME280;10734;44.792;20.482;2022-10-16T06:08:47;100600.16;;;12.79;96.23
21153;BME280;10734;44.792;20.482;2022-10-16T06:11:16;100601.88;;;12.80;96.43
21153;BME280;10734;44.792;20.482;2022-10-16T06:13:43;100599.94;;;12.90;95.82
21153;BME280;10734;44.792;20.482;2022-10-16T06:16:12;100598.66;;;12.94;95.02
21153;BME280;10734;44.792;20.482;2022-10-16T06:18:39;100604.84;;;13.04;94.64
21153;BME280;10734;44.792;20.482;2022-10-16T06:21:27;100613.72;;;13.15;94.11
21153;BME280;10734;44.792;20.482;2022-10-16T06:23:55;100620.91;;;13.24;93.61
21153;BME280;10734;44.792;20.482;2022-10-16T06:26:25;100613.63;;;13.34;93.16
21153;BME280;10734;44.792;20.482;2022-10-16T06:28:54;100624.72;;;13.49;92.45
21153;BME280;10734;44.792;20.482;2022-10-16T06:31:22;100620.91;;;13.60;91.56
21153;BME280;10734;44.792;20.482;2022-10-16T06:33:52;100629.13;;;13.68;90.69
21153;BME280;10734;44.792;20.482;2022-10-16T06:36:20;100626.78;;;13.73;90.60
21153;BME280;10734;44.792;20.482;2022-10-16T06:38:47;100636.97;;;13.79;90.16
21153;BME280;10734;44.792;20.482;2022-10-16T06:41:17;100632.94;;;13.83;89.82
21153;BME280;10734;44.792;20.482;2022-10-16T06:43:44;100637.09;;;13.96;89.68
21153;BME280;10734;44.792;20.482;2022-10-16T06:46:14;100646.00;;;14.14;88.52
21153;BME280;10734;44.792;20.482;2022-10-16T06:48:41;100648.50;;;14.34;87.70
21153;BME280;10734;44.792;20.482;2022-10-16T06:51:12;100645.81;;;14.34;87.57
21153;BME280;10734;44.792;20.482;2022-10-16T06:53:42;100651.59;;;14.47;86.68
21153;BME280;10734;44.792;20.482;2022-10-16T06:56:28;100657.66;;;14.67;86.18
21153;BME280;10734;44.792;20.482;2022-10-16T06:58:56;100659.88;;;14.72;85.65
21153;BME280;10734;44.792;20.482;2022-10-16T07:01:25;100671.13;;;14.85;85.59
21153;BME280;10734;44.792;20.482;2022-10-16T07:03:52;100673.13;;;14.83;85.21
21153;BME280;10734;44.792;20.482;2022-10-16T07:06:21;100680.00;;;15.04;84.64
21153;BME280;10734;44.792;20.482;2022-10-16T07:08:49;100668.78;;;14.90;84.60
21153;BME280;10734;44.792;20.482;2022-10-16T07:11:21;100676.28;;;15.05;84.28
21153;BME280;10734;44.792;20.482;2022-10-16T07:13:48;100676.47;;;15.12;84.21
21153;BME280;10734;44.792;20.482;2022-10-16T07:16:24;100682.44;;;15.32;83.01
21153;BME280;10734;44.792;20.482;2022-10-16T07:18:51;100678.06;;;15.39;83.13
21153;BME280;10734;44.792;20.482;2022-10-16T07:21:21;100676.00;;;15.41;82.92
21153;BME280;10734;44.792;20.482;2022-10-16T07:23:58;100683.84;;;15.60;81.43
21153;BME280;10734;44.792;20.482;2022-10-16T07:26:26;100683.03;;;15.85;80.84
21153;BME280;10734;44.792;20.482;2022-10-16T07:28:53;100692.38;;;15.90;79.76
21153;BME280;10734;44.792;20.482;2022-10-16T07:31:20;100685.09;;;15.82;79.87
21153;BME280;10734;44.792;20.482;2022-10-16T07:33:48;100685.25;;;15.89;79.89
21153;BME280;10734;44.792;20.482;2022-10-16T07:36:16;100700.16;;;16.26;79.15
21153;BME280;10734;44.792;20.482;2022-10-16T07:38:45;100689.94;;;16.45;78.27
21153;BME280;10734;44.792;20.482;2022-10-16T07:41:15;100685.78;;;16.65;77.20
21153;BME280;10734;44.792;20.482;2022-10-16T07:43:50;100680.34;;;16.65;76.44
21153;BME280;10734;44.792;20.482;2022-10-16T07:46:18;100687.09;;;16.86;75.63
21153;BME280;10734;44.792;20.482;2022-10-16T07:48:45;100683.94;;;16.66;75.97
21153;BME280;10734;44.792;20.482;2022-10-16T07:51:15;100690.84;;;16.85;75.43
21153;BME280;10734;44.792;20.482;2022-10-16T07:53:42;100698.56;;;17.13;74.34
21153;BME280;10734;44.792;20.482;2022-10-16T07:56:08;100696.31;;;17.48;72.73
21153;BME280;10734;44.792;20.482;2022-10-16T07:58:35;100699.13;;;17.63;71.18
21153;BME280;10734;44.792;20.482;2022-10-16T08:01:08;100697.41;;;17.85;70.13
21153;BME280;10734;44.792;20.482;2022-10-16T08:03:36;100692.22;;;17.52;70.34
21153;BME280;10734;44.792;20.482;2022-10-16T08:06:03;100698.00;;;17.49;69.93
21153;BME280;10734;44.792;20.482;2022-10-16T08:08:30;100714.34;;;17.49;69.32
21153;BME280;10734;44.792;20.482;2022-10-16T08:10:57;100712.91;;;17.61;68.85
21153;BME280;10734;44.792;20.482;2022-10-16T08:13:24;100707.84;;;17.50;68.83
21153;BME280;10734;44.792;20.482;2022-10-16T08:15:50;100711.81;;;17.47;69.44
21153;BME280;10734;44.792;20.482;2022-10-16T08:18:17;100719.91;;;17.78;68.60
21153;BME280;10734;44.792;20.482;2022-10-16T08:20:58;100721.13;;;17.76;68.07
21153;BME280;10734;44.792;20.482;2022-10-16T08:23:26;100723.94;;;17.91;67.61
21153;BME280;10734;44.792;20.482;2022-10-16T08:25:53;100721.03;;;18.16;67.42
21153;BME280;10734;44.792;20.482;2022-10-16T08:28:21;100721.66;;;18.18;67.02
21153;BME280;10734;44.792;20.482;2022-10-16T08:30:48;100717.84;;;18.27;66.55
21153;BME280;10734;44.792;20.482;2022-10-16T08:33:15;100712.63;;;18.40;66.23
21153;BME280;10734;44.792;20.482;2022-10-16T08:35:41;100733.00;;;18.44;65.28
21153;BME280;10734;44.792;20.482;2022-10-16T08:38:08;100726.09;;;18.72;64.75
21153;BME280;10734;44.792;20.482;2022-10-16T08:40:36;100730.53;;;18.88;63.50
21153;BME280;10734;44.792;20.482;2022-10-16T08:43:09;100726.34;;;19.21;62.39
21153;BME280;10734;44.792;20.482;2022-10-16T08:46:15;100730.88;;;19.51;61.58
21153;BME280;10734;44.792;20.482;2022-10-16T08:48:51;100736.66;;;19.41;61.29
21153;BME280;10734;44.792;20.482;2022-10-16T08:51:24;100733.28;;;19.39;60.78
21153;BME280;10734;44.792;20.482;2022-10-16T08:53:54;100724.97;;;19.47;60.49
21153;BME280;10734;44.792;20.482;2022-10-16T08:56:22;100735.66;;;19.64;60.16
21153;BME280;10734;44.792;20.482;2022-10-16T08:58:50;100731.47;;;19.68;59.58
21153;BME280;10734;44.792;20.482;2022-10-16T09:01:28;100740.34;;;19.70;59.20
21153;BME280;10734;44.792;20.482;2022-10-16T09:04:48;100734.94;;;19.91;58.57
21153;BME280;10734;44.792;20.482;2022-10-16T09:07:21;100739.41;;;19.63;59.44
21153;BME280;10734;44.792;20.482;2022-10-16T09:21:12;100747.41;;;20.01;58.01
21153;BME280;10734;44.792;20.482;2022-10-16T09:23:40;100740.59;;;20.40;58.03
21153;BME280;10734;44.792;20.482;2022-10-16T09:26:11;100743.91;;;20.63;57.00
21153;BME280;10734;44.792;20.482;2022-10-16T09:28:39;100747.78;;;21.11;55.55
21153;BME280;10734;44.792;20.482;2022-10-16T09:31:13;100742.66;;;20.94;55.45
21153;BME280;10734;44.792;20.482;2022-10-16T09:33:43;100745.13;;;20.82;56.47
21153;BME280;10734;44.792;20.482;2022-10-16T09:36:12;100740.16;;;20.99;56.07
21153;BME280;10734;44.792;20.482;2022-10-16T09:38:40;100735.53;;;21.00;55.70
21153;BME280;10734;44.792;20.482;2022-10-16T09:41:22;100748.19;;;21.08;56.13
21153;BME280;10734;44.792;20.482;2022-10-16T09:43:57;100746.22;;;21.36;55.50
21153;BME280;10734;44.792;20.482;2022-10-16T09:46:32;100748.50;;;21.88;54.28
21153;BME280;10734;44.792;20.482;2022-10-16T09:49:01;100748.25;;;21.83;54.55
21153;BME280;10734;44.792;20.482;2022-10-16T09:51:36;100742.59;;;21.91;54.16
21153;BME280;10734;44.792;20.482;2022-10-16T09:54:15;100754.44;;;22.05;54.09
21153;BME280;10734;44.792;20.482;2022-10-16T09:56:42;100750.88;;;22.58;53.03
21153;BME280;10734;44.792;20.482;2022-10-16T09:59:14;100753.16;;;22.74;52.15
21153;BME280;10734;44.792;20.482;2022-10-16T10:01:49;100749.78;;;22.19;52.05
21153;BME280;10734;44.792;20.482;2022-10-16T10:04:21;100757.22;;;22.38;52.68
21153;BME280;10734;44.792;20.482;2022-10-16T10:06:51;100748.34;;;23.35;50.52
21153;BME280;10734;44.792;20.482;2022-10-16T10:11:52;100763.53;;;23.44;49.74
21153;BME280;10734;44.792;20.482;2022-10-16T10:14:37;100764.38;;;23.83;49.05
21153;BME280;10734;44.792;20.482;2022-10-16T10:22:31;100761.44;;;24.17;48.01
21153;BME280;10734;44.792;20.482;2022-10-16T10:28:16;100744.47;;;23.49;50.27
21153;BME280;10734;44.792;20.482;2022-10-16T10:36:37;100747.75;;;24.98;45.92
21153;BME280;10734;44.792;20.482;2022-10-16T10:39:17;100748.44;;;23.99;47.88
21153;BME280;10734;44.792;20.482;2022-10-16T10:45:14;100737.16;;;24.07;47.97
21153;BME280;10734;44.792;20.482;2022-10-16T10:48:06;100738.13;;;24.70;47.26
21153;BME280;10734;44.792;20.482;2022-10-16T10:50:43;100735.34;;;25.25;45.52
21153;BME280;10734;44.792;20.482;2022-10-16T11:06:43;100743.00;;;24.68;45.32
21153;BME280;10734;44.792;20.482;2022-10-16T11:22:03;100722.38;;;24.77;45.72
21153;BME280;10734;44.792;20.482;2022-10-16T11:27:02;100714.28;;;26.81;41.30
21153;BME280;10734;44.792;20.482;2022-10-16T11:29:32;100716.69;;;27.30;40.03
21153;BME280;10734;44.792;20.482;2022-10-16T11:32:31;100719.44;;;26.30;41.12
21153;BME280;10734;44.792;20.482;2022-10-16T11:35:08;100710.41;;;25.99;42.47
21153;BME280;10734;44.792;20.482;2022-10-16T11:37:43;100710.81;;;26.39;41.17
21153;BME280;10734;44.792;20.482;2022-10-16T11:40:41;100717.88;;;26.58;41.15
21153;BME280;10734;44.792;20.482;2022-10-16T11:43:13;100713.94;;;26.54;40.51
21153;BME280;10734;44.792;20.482;2022-10-16T11:45:59;100714.50;;;26.44;41.97
21153;BME280;10734;44.792;20.482;2022-10-16T11:48:43;100711.25;;;26.95;40.11
21153;BME280;10734;44.792;20.482;2022-10-16T11:51:40;100707.94;;;26.81;39.92
21153;BME280;10734;44.792;20.482;2022-10-16T11:56:57;100701.19;;;26.53;40.88
21153;BME280;10734;44.792;20.482;2022-10-16T12:02:08;100708.78;;;27.79;38.89
21153;BME280;10734;44.792;20.482;2022-10-16T12:04:49;100703.75;;;27.19;38.97
21153;BME280;10734;44.792;20.482;2022-10-16T12:07:26;100699.59;;;27.04;39.91
21153;BME280;10734;44.792;20.482;2022-10-16T12:09:54;100706.25;;;26.56;40.01
21153;BME280;10734;44.792;20.482;2022-10-16T12:12:36;100705.44;;;27.20;39.33
21153;BME280;10734;44.792;20.482;2022-10-16T12:15:23;100707.44;;;27.65;38.12
21153;BME280;10734;44.792;20.482;2022-10-16T12:18:24;100701.09;;;27.82;37.42
21153;BME280;10734;44.792;20.482;2022-10-16T12:20:57;100699.25;;;27.87;37.08
21153;BME280;10734;44.792;20.482;2022-10-16T12:23:39;100698.91;;;28.51;36.60
21153;BME280;10734;44.792;20.482;2022-10-16T12:26:13;100703.75;;;27.76;37.38
21153;BME280;10734;44.792;20.482;2022-10-16T12:28:39;100711.16;;;27.88;37.18
21153;BME280;10734;44.792;20.482;2022-10-16T12:31:09;100706.31;;;28.29;36.19
21153;BME280;10734;44.792;20.482;2022-10-16T12:33:58;100699.56;;;28.76;35.94
21153;BME280;10734;44.792;20.482;2022-10-16T12:36:32;100700.59;;;28.52;36.40
21153;BME280;10734;44.792;20.482;2022-10-16T12:39:00;100694.59;;;29.00;36.14
21153;BME280;10734;44.792;20.482;2022-10-16T12:41:35;100702.44;;;29.25;35.21
21153;BME280;10734;44.792;20.482;2022-10-16T12:44:22;100698.34;;;28.89;35.54
21153;BME280;10734;44.792;20.482;2022-10-16T12:46:49;100696.88;;;29.52;34.70
21153;BME280;10734;44.792;20.482;2022-10-16T12:49:37;100711.75;;;29.41;34.60
21153;BME280;10734;44.792;20.482;2022-10-16T12:52:05;100708.13;;;29.18;34.44
21153;BME280;10734;44.792;20.482;2022-10-16T12:54:50;100699.75;;;28.69;34.62
21153;BME280;10734;44.792;20.482;2022-10-16T13:00:47;100704.38;;;28.85;34.75
21153;BME280;10734;44.792;20.482;2022-10-16T13:06:30;100709.56;;;28.99;34.64
21153;BME280;10734;44.792;20.482;2022-10-16T13:22:35;100713.72;;;29.73;34.06
21153;BME280;10734;44.792;20.482;2022-10-16T13:25:33;100718.56;;;29.55;33.70
21153;BME280;10734;44.792;20.482;2022-10-16T13:28:09;100721.56;;;28.65;34.88
21153;BME280;10734;44.792;20.482;2022-10-16T13:30:40;100719.88;;;28.81;34.88
21153;BME280;10734;44.792;20.482;2022-10-16T13:33:13;100725.69;;;29.02;34.74
21153;BME280;10734;44.792;20.482;2022-10-16T13:35:49;100725.44;;;29.26;34.59
21153;BME280;10734;44.792;20.482;2022-10-16T13:38:20;100715.09;;;28.99;34.30
21153;BME280;10734;44.792;20.482;2022-10-16T13:41:01;100728.94;;;28.77;34.42
21153;BME280;10734;44.792;20.482;2022-10-16T13:46:14;100728.09;;;28.76;34.27
21153;BME280;10734;44.792;20.482;2022-10-16T13:48:42;100713.72;;;29.01;34.08
21153;BME280;10734;44.792;20.482;2022-10-16T13:51:17;100719.47;;;28.95;34.18
21153;BME280;10734;44.792;20.482;2022-10-16T13:53:45;100715.13;;;28.26;34.70
21153;BME280;10734;44.792;20.482;2022-10-16T13:56:18;100721.59;;;28.14;34.85
21153;BME280;10734;44.792;20.482;2022-10-16T13:58:46;100717.72;;;28.15;34.90
21153;BME280;10734;44.792;20.482;2022-10-16T14:01:17;100721.66;;;28.71;34.14
21153;BME280;10734;44.792;20.482;2022-10-16T14:03:45;100721.53;;;28.82;33.64
21153;BME280;10734;44.792;20.482;2022-10-16T14:06:18;100728.09;;;28.76;34.07
21153;BME280;10734;44.792;20.482;2022-10-16T14:08:53;100728.00;;;29.10;33.46
21153;BME280;10734;44.792;20.482;2022-10-16T14:11:22;100717.94;;;29.04;33.35
21153;BME280;10734;44.792;20.482;2022-10-16T14:13:53;100735.16;;;28.67;33.52
21153;BME280;10734;44.792;20.482;2022-10-16T14:16:22;100736.28;;;28.32;34.57
21153;BME280;10734;44.792;20.482;2022-10-16T14:19:01;100737.72;;;28.18;34.57
21153;BME280;10734;44.792;20.482;2022-10-16T14:21:28;100736.53;;;28.13;34.20
21153;BME280;10734;44.792;20.482;2022-10-16T14:23:55;100734.88;;;27.55;35.11
21153;BME280;10734;44.792;20.482;2022-10-16T14:26:24;100738.69;;;27.37;35.87
21153;BME280;10734;44.792;20.482;2022-10-16T14:29:13;100738.09;;;28.09;34.59
21153;BME280;10734;44.792;20.482;2022-10-16T14:31:41;100739.13;;;27.74;35.15
21153;BME280;10734;44.792;20.482;2022-10-16T14:34:25;100728.69;;;27.48;35.32
21153;BME280;10734;44.792;20.482;2022-10-16T14:36:59;100739.38;;;27.44;35.38
21153;BME280;10734;44.792;20.482;2022-10-16T14:39:27;100729.34;;;27.55;35.15
21153;BME280;10734;44.792;20.482;2022-10-16T14:41:56;100736.94;;;27.76;34.95
21153;BME280;10734;44.792;20.482;2022-10-16T14:44:28;100735.94;;;28.11;34.55